Time;durP1;ratioP1;P1;durP2;ratioP2;P2;SDS_P1;SDS_P2;PMS_P1;PMS_P2;Temp;Humidity;BMP_temperature;BMP_pressure;BME280_temperature;BME280_humidity;BME280_pressure;Samples;Min_cycle;Max_cycle;Signal;HPM_P1;HPM_P2
2023/07/29 00:01:46;;;;;;;4.80;3.58;;;;;;;19.32;100.00;100102.84;5042635;28;20064;-89
2023/07/29 00:04:13;;;;;;;4.35;3.67;;;;;;;19.26;100.00;100090.50;5043130;28;20049;-90
2023/07/29 00:06:41;;;;;;;11.90;4.43;;;;;;;19.27;100.00;100088.66;5044407;28;20095;-90
2023/07/29 00:09:08;;;;;;;5.40;3.45;;;;;;;19.23;100.00;100085.63;5033616;28;20095;-89
2023/07/29 00:11:35;;;;;;;4.15;3.60;;;;;;;19.13;100.00;100074.75;5044801;28;20056;-89
2023/07/29 00:14:02;;;;;;;5.80;3.50;;;;;;;19.15;100.00;100080.66;5033636;28;20463;-90
2023/07/29 00:16:29;;;;;;;5.47;3.55;;;;;;;19.08;100.00;100077.28;5039376;28;20045;-88
2023/07/29 00:18:55;;;;;;;5.65;3.80;;;;;;;19.14;100.00;100077.19;5038763;28;20056;-90
2023/07/29 00:21:22;;;;;;;4.93;3.42;;;;;;;19.02;100.00;100067.56;5042530;28;20049;-89
2023/07/29 00:23:50;;;;;;;5.10;3.92;;;;;;;19.10;100.00;100078.66;5039278;28;20060;-89
2023/07/29 00:26:17;;;;;;;6.97;3.80;;;;;;;19.04;100.00;100065.50;5035819;28;20049;-89
2023/07/29 00:28:44;;;;;;;5.60;3.72;;;;;;;19.12;100.00;100067.84;5037526;28;20060;-90
2023/07/29 00:31:10;;;;;;;9.07;4.00;;;;;;;19.07;100.00;100078.31;5037801;28;20131;-89
2023/07/29 00:33:37;;;;;;;6.75;4.30;;;;;;;19.13;100.00;100085.38;5030685;28;20056;-89
2023/07/29 00:36:04;;;;;;;6.22;3.78;;;;;;;19.09;100.00;100073.59;5037961;28;20054;-89
2023/07/29 00:38:31;;;;;;;4.97;4.13;;;;;;;19.05;100.00;100081.19;5032086;28;20109;-89
2023/07/29 00:41:01;;;;;;;6.13;3.65;;;;;;;18.95;100.00;100059.69;5036041;28;20113;-89
2023/07/29 00:43:28;;;;;;;6.35;4.10;;;;;;;19.07;100.00;100075.66;5030940;28;20084;-90
2023/07/29 00:45:56;;;;;;;6.32;3.72;;;;;;;19.07;100.00;100086.25;5029882;28;20073;-89
2023/07/29 00:48:23;;;;;;;7.22;4.00;;;;;;;19.08;100.00;100078.09;5032209;28;20049;-90
2023/07/29 00:50:50;;;;;;;5.38;4.00;;;;;;;19.09;100.00;100068.28;5036427;28;20053;-90
2023/07/29 00:53:17;;;;;;;7.53;3.75;;;;;;;19.04;100.00;100079.56;5030226;28;20128;-90
2023/07/29 00:55:44;;;;;;;6.75;4.13;;;;;;;18.92;100.00;100046.88;5036554;28;20054;-89
2023/07/29 00:58:13;;;;;;;8.00;3.85;;;;;;;18.96;100.00;100055.19;5030898;28;20045;-89
2023/07/29 01:00:40;;;;;;;4.70;3.90;;;;;;;19.03;100.00;100058.56;5030654;28;20096;-90
2023/07/29 01:03:06;;;;;;;5.35;3.60;;;;;;;19.09;100.00;100070.94;5030439;28;20062;-89
2023/07/29 01:05:47;;;;;;;5.28;3.80;;;;;;;19.04;100.00;100052.25;5031019;28;20101;-89
2023/07/29 01:08:26;;;;;;;5.70;3.95;;;;;;;19.14;100.00;100060.47;5020226;28;20096;-89
2023/07/29 01:11:02;;;;;;;4.45;3.85;;;;;;;19.12;100.00;100058.03;5032645;28;20469;-89
2023/07/29 01:13:38;;;;;;;6.30;3.90;;;;;;;19.07;100.00;100049.94;5030925;28;20160;-89
2023/07/29 01:16:10;;;;;;;8.98;4.07;;;;;;;19.12;100.00;100046.63;5023667;28;20104;-89
2023/07/29 01:18:39;;;;;;;;;;;;;;;19.13;100.00;100048.25;5021779;28;20100;-90
2023/07/29 01:21:09;;;;;;;5.57;4.13;;;;;;;19.15;100.00;100056.78;5029846;28;19921;-89
2023/07/29 01:23:38;;;;;;;6.85;3.90;;;;;;;19.14;100.00;100049.84;5034775;28;20085;-89
2023/07/29 01:26:04;;;;;;;4.72;3.70;;;;;;;19.10;100.00;100040.72;5028689;28;20057;-91
2023/07/29 01:28:32;;;;;;;5.25;4.10;;;;;;;19.01;100.00;100039.44;5028729;28;20112;-89
2023/07/29 01:31:03;;;;;;;5.10;4.00;;;;;;;19.00;100.00;100040.47;5037179;28;20140;-88
2023/07/29 01:33:35;;;;;;;5.35;4.03;;;;;;;19.03;100.00;100045.31;5027533;28;20132;-91
2023/07/29 01:36:04;;;;;;;5.03;4.00;;;;;;;19.17;100.00;100054.72;5032236;28;20144;-91
2023/07/29 01:38:36;;;;;;;7.60;4.10;;;;;;;18.99;100.00;100047.59;5038307;28;20421;-91
2023/07/29 01:41:06;;;;;;;7.40;4.30;;;;;;;19.05;100.00;100056.50;5032282;28;20126;-88
2023/07/29 01:43:34;;;;;;;5.72;4.50;;;;;;;19.14;100.00;100060.47;5037996;28;20088;-88
2023/07/29 01:46:01;;;;;;;6.40;4.07;;;;;;;19.16;100.00;100053.09;5036818;28;20045;-89
2023/07/29 01:48:30;;;;;;;6.78;4.63;;;;;;;19.21;100.00;100059.34;5028122;28;20049;-89
2023/07/29 01:50:56;;;;;;;5.63;4.43;;;;;;;19.10;100.00;100036.25;5032817;28;20424;-89
2023/07/29 01:53:23;;;;;;;6.80;4.35;;;;;;;19.03;100.00;100046.13;5039864;28;20045;-90
2023/07/29 01:55:50;;;;;;;12.15;4.80;;;;;;;19.10;100.00;100038.88;5034717;28;20082;-90
2023/07/29 01:58:18;;;;;;;10.48;4.53;;;;;;;18.96;100.00;100039.28;5031319;28;20089;-90
2023/07/29 02:00:45;;;;;;;6.78;4.70;;;;;;;19.05;100.00;100040.59;5038902;28;20077;-90
2023/07/29 02:03:11;;;;;;;8.88;4.80;;;;;;;19.00;100.00;100053.72;5038869;28;20107;-90
2023/07/29 02:05:38;;;;;;;7.72;4.40;;;;;;;18.83;100.00;100038.47;5032127;28;20061;-91
2023/07/29 02:08:05;;;;;;;7.40;4.80;;;;;;;18.98;100.00;100046.00;5039594;28;20131;-89
2023/07/29 02:10:31;;;;;;;4.75;4.30;;;;;;;18.94;100.00;100050.13;5036891;28;20408;-89
2023/07/29 02:12:58;;;;;;;4.38;3.97;;;;;;;18.97;100.00;100059.47;5040552;28;20041;-88
2023/07/29 02:15:26;;;;;;;8.10;4.30;;;;;;;19.00;100.00;100056.38;5029905;28;20053;-89
2023/07/29 02:17:53;;;;;;;6.22;4.40;;;;;;;19.04;100.00;100049.59;5040794;28;20075;-88
2023/07/29 02:20:19;;;;;;;6.43;4.32;;;;;;;19.00;100.00;100043.13;5026121;28;20552;-88
2023/07/29 02:22:48;;;;;;;6.43;4.30;;;;;;;19.07;100.00;100043.84;5035637;28;20049;-88
2023/07/29 02:25:15;;;;;;;9.13;3.88;;;;;;;19.09;100.00;100037.28;5031603;28;20053;-88
2023/07/29 02:27:41;;;;;;;4.22;3.83;;;;;;;19.12;100.00;100042.13;5031365;28;20137;-89
2023/07/29 02:30:09;;;;;;;5.88;3.78;;;;;;;19.09;100.00;100036.47;5031122;28;20089;-89
2023/07/29 02:32:37;;;;;;;4.85;4.20;;;;;;;19.11;100.00;100034.41;5036278;28;20057;-89
2023/07/29 02:35:05;;;;;;;4.28;3.72;;;;;;;19.20;100.00;100027.75;5033627;28;20076;-89
2023/07/29 02:37:32;;;;;;;4.80;3.83;;;;;;;19.19;100.00;100026.13;5039826;28;20137;-90
2023/07/29 02:39:58;;;;;;;4.60;3.70;;;;;;;19.20;100.00;100033.84;5032446;28;20124;-90
2023/07/29 02:42:25;;;;;;;4.95;3.75;;;;;;;19.19;100.00;100031.44;5033477;28;20104;-88
2023/07/29 02:44:52;;;;;;;5.40;3.55;;;;;;;19.24;100.00;100039.50;5033503;28;20088;-88
2023/07/29 02:47:18;;;;;;;4.43;3.70;;;;;;;19.13;100.00;100027.03;5029086;28;20148;-87
2023/07/29 02:49:47;;;;;;;5.10;3.95;;;;;;;19.19;100.00;100050.00;5031895;28;20148;-90
2023/07/29 02:52:13;;;;;;;6.07;3.70;;;;;;;19.17;100.00;100054.72;5037484;28;20092;-88
2023/07/29 02:54:40;;;;;;;4.10;3.58;;;;;;;19.20;100.00;100041.81;5037116;28;20053;-88
2023/07/29 02:57:07;;;;;;;7.93;3.50;;;;;;;19.12;100.00;100044.78;5037822;28;20049;-88
2023/07/29 02:59:33;;;;;;;5.95;4.43;;;;;;;19.19;100.00;100044.69;5029625;28;20117;-87
2023/07/29 03:02:00;;;;;;;4.78;3.97;;;;;;;19.15;100.00;100046.16;5034566;28;20485;-87
2023/07/29 03:04:27;;;;;;;4.10;3.70;;;;;;;19.16;100.00;100050.44;5028677;28;20171;-88
2023/07/29 03:06:55;;;;;;;6.03;4.15;;;;;;;19.10;100.00;100061.94;5032080;28;20081;-86
2023/07/29 03:09:21;;;;;;;4.80;3.95;;;;;;;19.05;100.00;100053.84;5028973;28;20213;-87
2023/07/29 03:11:48;;;;;;;4.68;3.70;;;;;;;19.00;100.00;100048.41;5037368;28;20132;-87
2023/07/29 03:14:14;;;;;;;4.50;3.65;;;;;;;18.96;100.00;100047.25;5035043;28;20089;-87
2023/07/29 03:16:41;;;;;;;5.10;4.07;;;;;;;19.02;100.00;100047.16;5028656;28;20084;-87
2023/07/29 03:19:08;;;;;;;4.78;3.75;;;;;;;18.94;100.00;100028.91;5032281;28;20105;-87
2023/07/29 03:21:34;;;;;;;5.75;3.80;;;;;;;18.95;100.00;100035.84;5030085;28;20486;-88
2023/07/29 03:24:02;;;;;;;10.38;5.05;;;;;;;19.01;100.00;100028.81;5037877;28;20103;-87
2023/07/29 03:26:29;;;;;;;6.35;4.63;;;;;;;19.02;100.00;100023.28;5026238;28;20555;-87
2023/07/29 03:28:56;;;;;;;9.25;4.40;;;;;;;18.89;100.00;100013.72;5031446;28;20493;-86
2023/07/29 03:31:22;;;;;;;6.70;4.03;;;;;;;18.95;100.00;100019.13;5026309;28;20050;-87
2023/07/29 03:33:49;;;;;;;4.90;4.03;;;;;;;18.97;100.00;100023.16;5037476;28;20464;-86
2023/07/29 03:36:16;;;;;;;5.22;4.18;;;;;;;18.97;100.00;100027.66;5033323;28;20077;-86
2023/07/29 03:38:44;;;;;;;6.05;4.40;;;;;;;19.02;100.00;100025.94;5033021;28;20052;-86
2023/07/29 03:41:12;;;;;;;6.03;4.43;;;;;;;19.02;100.00;100025.13;5030181;28;20050;-88
2023/07/29 03:43:39;;;;;;;8.20;4.50;;;;;;;19.05;100.00;100024.69;5035905;28;20077;-88
2023/07/29 03:46:06;;;;;;;7.68;4.70;;;;;;;19.02;100.00;100025.13;5028938;28;20146;-87
2023/07/29 03:48:33;;;;;;;7.28;4.57;;;;;;;18.97;100.00;100032.97;5032882;28;20041;-88
2023/07/29 03:50:59;;;;;;;7.47;4.63;;;;;;;19.01;100.00;100039.44;5031152;28;20136;-87
2023/07/29 03:53:26;;;;;;;7.18;4.97;;;;;;;18.97;100.00;100038.25;5032352;28;20553;-87
2023/07/29 03:55:52;;;;;;;8.25;4.60;;;;;;;18.91;100.00;100037.31;5037694;28;20049;-87
2023/07/29 03:58:20;;;;;;;6.57;4.80;;;;;;;18.98;100.00;100029.28;5023683;28;20049;-87
2023/07/29 04:00:47;;;;;;;7.10;4.75;;;;;;;18.94;100.00;100030.75;5034835;28;20064;-86
2023/07/29 04:03:14;;;;;;;6.32;4.22;;;;;;;18.89;100.00;100034.91;5031852;28;20068;-87
2023/07/29 04:05:40;;;;;;;6.68;4.32;;;;;;;18.87;100.00;100044.94;5033159;28;20128;-86
2023/07/29 04:08:07;;;;;;;6.32;4.50;;;;;;;18.82;100.00;100047.44;5034061;28;20500;-87
2023/07/29 04:10:34;;;;;;;8.77;4.57;;;;;;;18.76;100.00;100048.34;5021724;28;20045;-87
2023/07/29 04:13:01;;;;;;;7.72;4.85;;;;;;;18.78;100.00;100062.19;5038006;28;20132;-89
2023/07/29 04:15:29;;;;;;;7.75;4.90;;;;;;;18.72;100.00;100056.94;5032116;28;20081;-87
2023/07/29 04:17:56;;;;;;;9.00;4.72;;;;;;;18.70;100.00;100049.22;5038244;28;20053;-88
2023/07/29 04:20:22;;;;;;;8.27;4.75;;;;;;;18.64;100.00;100055.41;5024990;28;20482;-88
2023/07/29 04:22:49;;;;;;;7.07;5.07;;;;;;;18.64;100.00;100050.13;5030990;28;20045;-88
2023/07/29 04:25:16;;;;;;;7.95;4.68;;;;;;;18.65;100.00;100053.56;5029355;28;20046;-88
2023/07/29 04:27:42;;;;;;;9.45;4.88;;;;;;;18.66;100.00;100069.25;5030381;28;20123;-88
2023/07/29 04:30:09;;;;;;;8.00;5.10;;;;;;;18.65;100.00;100050.91;5034875;28;20057;-88
2023/07/29 04:32:37;;;;;;;7.90;4.80;;;;;;;18.64;100.00;100065.19;5029180;28;20136;-88
2023/07/29 04:35:05;;;;;;;9.80;5.55;;;;;;;18.54;100.00;100068.34;5031720;28;20068;-88
2023/07/29 04:37:31;;;;;;;8.80;5.22;;;;;;;18.57;100.00;100070.53;5032686;28;20081;-88
2023/07/29 04:39:58;;;;;;;12.40;5.30;;;;;;;18.60;100.00;100080.72;5036460;28;20107;-88
2023/07/29 04:42:24;;;;;;;11.02;5.65;;;;;;;18.55;100.00;100088.50;5034659;28;20089;-88
2023/07/29 04:44:51;;;;;;;8.75;6.07;;;;;;;18.55;100.00;100088.50;5036188;28;20512;-88
2023/07/29 04:47:18;;;;;;;8.10;5.82;;;;;;;18.62;100.00;100093.75;5025462;28;20053;-87
2023/07/29 04:49:46;;;;;;;12.40;6.18;;;;;;;18.65;100.00;100072.94;5030074;28;20077;-87
2023/07/29 04:52:12;;;;;;;9.35;5.63;;;;;;;18.72;100.00;100081.63;5027452;28;20508;-87
2023/07/29 04:54:39;;;;;;;9.10;5.95;;;;;;;18.75;100.00;100067.91;5029590;28;20049;-88
2023/07/29 04:57:06;;;;;;;7.38;5.82;;;;;;;18.78;100.00;100066.66;5028510;28;20133;-88
2023/07/29 04:59:33;;;;;;;8.43;5.60;;;;;;;18.88;100.00;100061.66;5026368;28;20049;-87
2023/07/29 05:01:59;;;;;;;10.38;5.47;;;;;;;18.85;100.00;100062.91;5028792;28;20080;-87
2023/07/29 05:04:26;;;;;;;8.98;5.75;;;;;;;18.93;100.00;100068.91;5030483;28;20053;-88
2023/07/29 05:06:54;;;;;;;5.90;4.70;;;;;;;18.87;100.00;100071.44;5030506;28;20112;-88
2023/07/29 05:09:21;;;;;;;6.78;5.43;;;;;;;18.84;100.00;100071.06;5020631;28;20046;-87
2023/07/29 05:11:48;;;;;;;7.60;5.43;;;;;;;18.85;100.00;100076.16;5034590;28;20077;-87
2023/07/29 05:14:16;;;;;;;9.95;4.88;;;;;;;18.89;100.00;100072.03;5027332;28;20054;-88
2023/07/29 05:16:43;;;;;;;5.25;4.60;;;;;;;18.95;100.00;100072.13;5034662;28;20136;-88
2023/07/29 05:19:10;;;;;;;6.60;4.78;;;;;;;18.99;100.00;100079.44;5035203;28;20041;-87
2023/07/29 05:21:38;;;;;;;4.97;4.43;;;;;;;19.01;100.00;100071.25;5026892;28;20056;-88
2023/07/29 05:24:06;;;;;;;6.50;4.90;;;;;;;18.94;100.00;100083.78;5029036;28;20092;-87
2023/07/29 05:26:33;;;;;;;5.65;4.30;;;;;;;18.84;100.00;100079.84;5034287;28;20461;-88
2023/07/29 05:28:59;;;;;;;9.05;4.82;;;;;;;18.83;100.00;100083.53;5033736;28;20045;-87
2023/07/29 05:31:26;;;;;;;7.28;5.15;;;;;;;18.88;100.00;100094.28;5035404;28;20077;-88
2023/07/29 05:33:53;;;;;;;5.30;4.80;;;;;;;18.86;100.00;100093.69;5034289;28;20570;-87
2023/07/29 05:36:19;;;;;;;7.15;5.03;;;;;;;18.95;100.00;100096.00;5025824;28;20136;-88
2023/07/29 05:38:46;;;;;;;7.10;5.55;;;;;;;18.92;100.00;100088.50;5034503;28;20569;-87
2023/07/29 05:41:14;;;;;;;6.88;5.10;;;;;;;18.94;100.00;100103.16;5028568;28;20049;-87
2023/07/29 05:43:43;;;;;;;7.07;4.97;;;;;;;18.95;100.00;100109.25;5033808;28;20124;-87
2023/07/29 05:46:09;;;;;;;7.28;4.93;;;;;;;18.82;100.00;100112.91;5032205;28;20053;-87
2023/07/29 05:48:36;;;;;;;7.97;4.88;;;;;;;18.88;100.00;100120.78;5030652;28;20133;-87
2023/07/29 05:51:03;;;;;;;11.75;5.10;;;;;;;18.87;100.00;100135.06;5031592;28;20053;-87
2023/07/29 05:53:29;;;;;;;9.10;4.72;;;;;;;18.96;100.00;100132.91;5039602;28;20211;-87
2023/07/29 05:55:56;;;;;;;9.82;4.20;;;;;;;19.00;100.00;100128.78;5036413;28;20136;-88
2023/07/29 05:58:24;;;;;;;5.15;4.15;;;;;;;18.96;100.00;100132.09;5034715;28;20096;-87
2023/07/29 06:00:51;;;;;;;4.72;4.20;;;;;;;18.98;100.00;100141.44;5035275;28;20042;-87
2023/07/29 06:03:17;;;;;;;6.05;3.90;;;;;;;18.85;100.00;100144.28;5037910;28;20051;-87
2023/07/29 06:05:44;;;;;;;4.65;3.78;;;;;;;18.87;100.00;100145.66;5032134;28;20052;-88
2023/07/29 06:08:11;;;;;;;4.32;3.88;;;;;;;18.95;100.00;100151.69;5036994;28;20392;-87
2023/07/29 06:10:37;;;;;;;4.05;3.65;;;;;;;18.87;100.00;100156.28;5036512;28;20072;-88
2023/07/29 06:13:04;;;;;;;6.45;3.80;;;;;;;18.94;100.00;100160.66;5037102;28;20474;-89
2023/07/29 06:15:32;;;;;;;6.00;3.90;;;;;;;18.97;100.00;100157.56;5036008;28;20049;-89
2023/07/29 06:17:59;;;;;;;5.60;4.15;;;;;;;18.88;100.00;100176.44;5044479;28;20077;-86
2023/07/29 06:20:26;;;;;;;8.13;4.25;;;;;;;18.78;100.00;100168.19;5031358;28;20045;-87
2023/07/29 06:22:53;;;;;;;17.45;7.20;;;;;;;18.81;100.00;100166.94;5041353;28;20076;-87
2023/07/29 06:25:20;;;;;;;7.53;4.47;;;;;;;18.69;100.00;100163.41;5028313;28;20046;-86
2023/07/29 06:27:46;;;;;;;8.48;4.50;;;;;;;18.69;100.00;100164.22;5038290;28;20061;-87
2023/07/29 06:30:13;;;;;;;7.50;4.25;;;;;;;18.67;100.00;100165.47;5038467;28;20091;-89
2023/07/29 06:32:41;;;;;;;5.75;4.03;;;;;;;18.80;100.00;100167.97;5035774;28;20030;-89
2023/07/29 06:35:08;;;;;;;8.25;4.30;;;;;;;18.79;100.00;100142.50;5032878;28;20550;-89
2023/07/29 06:37:35;;;;;;;8.27;4.10;;;;;;;18.95;100.00;100163.09;5034922;28;20058;-88
2023/07/29 06:40:01;;;;;;;6.75;4.20;;;;;;;18.83;100.00;100147.16;5031466;28;20049;-87
2023/07/29 06:42:28;;;;;;;5.97;3.80;;;;;;;18.94;100.00;100153.50;5042218;28;20361;-86
2023/07/29 06:44:55;;;;;;;4.93;3.42;;;;;;;19.03;100.00;100162.78;5044352;28;20088;-87
2023/07/29 06:47:21;;;;;;;5.38;3.80;;;;;;;19.19;100.00;100148.13;5040475;28;20120;-87
2023/07/29 06:49:49;;;;;;;7.70;4.20;;;;;;;19.31;100.00;100151.66;5040806;28;20097;-86
2023/07/29 06:52:16;;;;;;;6.35;3.92;;;;;;;19.42;100.00;100153.50;5034409;28;20077;-87
2023/07/29 06:54:43;;;;;;;4.20;3.67;;;;;;;19.69;100.00;100155.84;5028180;28;20118;-91
2023/07/29 06:57:09;;;;;;;7.50;4.25;;;;;;;19.96;100.00;100140.28;5043695;28;20078;-90
2023/07/29 06:59:36;;;;;;;8.55;4.47;;;;;;;20.47;100.00;100144.94;5039649;28;20080;-88
2023/07/29 07:02:03;;;;;;;7.63;4.40;;;;;;;20.68;100.00;100146.19;5041161;28;20049;-88
2023/07/29 07:04:29;;;;;;;8.95;4.72;;;;;;;20.73;100.00;100141.81;5039114;28;20049;-88
2023/07/29 07:06:58;;;;;;;8.23;4.20;;;;;;;21.14;99.29;100139.94;5033854;28;20081;-89
2023/07/29 07:09:24;;;;;;;9.07;4.20;;;;;;;21.75;95.71;100122.41;5060913;22;20073;-79
2023/07/29 07:11:51;;;;;;;7.63;3.63;;;;;;;21.26;94.49;100123.97;5032228;28;20124;-78
2023/07/29 07:14:17;;;;;;;6.60;3.45;;;;;;;21.57;94.57;100134.09;5031273;28;20115;-78
2023/07/29 07:16:44;;;;;;;6.18;3.92;;;;;;;21.44;94.74;100124.56;5032191;28;20057;-77
2023/07/29 07:19:11;;;;;;;7.38;3.40;;;;;;;21.26;93.11;100124.78;5031109;28;20080;-77
2023/07/29 07:21:38;;;;;;;6.13;3.58;;;;;;;21.29;93.58;100142.91;5031748;28;20049;-78
2023/07/29 07:24:06;;;;;;;7.60;3.42;;;;;;;21.27;93.46;100138.91;5030895;28;20049;-78
2023/07/29 07:26:32;;;;;;;5.47;3.10;;;;;;;21.46;92.89;100141.09;5035531;28;20133;-78
2023/07/29 07:28:59;;;;;;;6.18;3.58;;;;;;;21.38;91.76;100138.00;5032213;28;20049;-79
2023/07/29 07:31:26;;;;;;;9.18;3.42;;;;;;;21.73;91.51;100149.31;5030409;28;20054;-78
2023/07/29 07:33:52;;;;;;;4.50;3.30;;;;;;;21.86;89.25;100145.50;5030955;28;20136;-78
2023/07/29 07:36:19;;;;;;;7.63;3.47;;;;;;;21.62;89.97;100160.81;5030335;28;20504;-78
2023/07/29 07:38:45;;;;;;;5.13;3.20;;;;;;;21.61;89.45;100148.56;5031198;28;20071;-77
2023/07/29 07:41:13;;;;;;;5.38;3.13;;;;;;;20.90;90.89;100171.13;5030506;28;20132;-78
2023/07/29 07:43:40;;;;;;;6.40;3.40;;;;;;;20.67;92.24;100177.31;5030377;28;20107;-78
2023/07/29 07:46:06;;;;;;;4.07;3.30;;;;;;;20.81;92.99;100169.84;5030707;28;20061;-77
2023/07/29 07:48:33;;;;;;;6.47;3.05;;;;;;;21.10;94.15;100165.41;5030423;28;20144;-77
2023/07/29 07:51:00;;;;;;;5.43;3.70;;;;;;;21.20;94.15;100166.41;5027992;28;20049;-80
2023/07/29 07:53:26;;;;;;;5.78;3.05;;;;;;;20.97;91.91;100155.03;5030279;28;20485;-79
2023/07/29 07:55:53;;;;;;;2.80;2.60;;;;;;;20.86;90.72;100154.81;5029033;28;20128;-78
2023/07/29 07:58:21;;;;;;;4.93;2.80;;;;;;;21.22;89.78;100141.47;5019105;28;20059;-76
2023/07/29 08:00:48;;;;;;;4.32;2.97;;;;;;;21.53;87.98;100139.09;5029928;28;20041;-77
2023/07/29 08:03:14;;;;;;;4.35;2.88;;;;;;;21.91;85.81;100129.59;5020010;28;20049;-79
2023/07/29 08:05:41;;;;;;;4.85;3.40;;;;;;;22.18;83.51;100146.59;5029362;28;20468;-76
2023/07/29 08:08:07;;;;;;;4.07;2.75;;;;;;;22.36;83.15;100142.03;5023978;28;20167;-78
2023/07/29 08:10:34;;;;;;;6.20;3.33;;;;;;;23.37;80.16;100121.13;5031876;28;20063;-78
2023/07/29 08:13:00;;;;;;;3.13;2.78;;;;;;;25.14;76.05;100127.63;5029310;28;20045;-80
2023/07/29 08:15:28;;;;;;;3.97;2.38;;;;;;;25.59;72.01;100122.59;5026116;28;20059;-78
2023/07/29 08:17:55;;;;;;;3.72;2.58;;;;;;;26.48;69.64;100137.28;5020520;28;20511;-79
2023/07/29 08:20:22;;;;;;;4.10;3.20;;;;;;;26.25;68.54;100138.66;5033204;28;20065;-79
2023/07/29 08:22:50;;;;;;;4.93;2.63;;;;;;;26.11;68.54;100139.22;5029573;28;20117;-79
2023/07/29 08:25:17;;;;;;;5.22;2.55;;;;;;;25.52;69.15;100130.88;5032261;28;20044;-78
2023/07/29 08:27:43;;;;;;;4.40;2.53;;;;;;;24.48;70.09;100138.06;5036223;28;20144;-78
2023/07/29 08:30:11;;;;;;;4.28;2.30;;;;;;;24.23;71.22;100142.41;5025874;28;20050;-76
2023/07/29 08:32:38;;;;;;;3.63;2.72;;;;;;;24.41;70.02;100129.44;5029815;28;20049;-79
2023/07/29 08:35:06;;;;;;;3.28;2.15;;;;;;;23.98;71.21;100130.50;5029195;28;20049;-79
2023/07/29 08:37:33;;;;;;;5.13;2.63;;;;;;;23.35;73.83;100145.41;5030731;28;20042;-79
2023/07/29 08:40:00;;;;;;;3.88;2.60;;;;;;;22.96;75.71;100151.91;5031111;28;20053;-79
2023/07/29 08:42:32;;;;;;;3.17;2.75;;;;;;;22.87;77.30;100158.72;5022809;28;20478;-77
2023/07/29 08:45:02;;;;;;;2.95;2.63;;;;;;;22.74;77.91;100165.19;5015581;28;20546;-79
2023/07/29 08:47:29;;;;;;;3.42;2.88;;;;;;;22.64;77.86;100151.75;5015591;28;20137;-78
2023/07/29 08:49:57;;;;;;;2.42;2.22;;;;;;;22.77;78.40;100149.50;5010562;28;20052;-78
2023/07/29 08:52:25;;;;;;;2.80;2.60;;;;;;;22.75;78.04;100158.81;5015657;28;20057;-78
2023/07/29 08:54:52;;;;;;;3.83;2.67;;;;;;;22.74;78.38;100147.34;5011022;28;20134;-77
2023/07/29 08:57:20;;;;;;;3.53;2.85;;;;;;;22.58;79.10;100156.22;5016890;28;20127;-78
2023/07/29 08:59:47;;;;;;;4.07;2.65;;;;;;;22.52;79.15;100155.31;5026462;28;20131;-78
2023/07/29 09:02:14;;;;;;;3.78;2.67;;;;;;;22.66;78.99;100146.97;5018832;28;20129;-79
2023/07/29 09:04:40;;;;;;;3.10;2.38;;;;;;;22.40;78.65;100149.28;5015694;28;20060;-78
2023/07/29 09:07:08;;;;;;;4.43;3.03;;;;;;;22.14;78.45;100160.63;5037737;28;20456;-78
2023/07/29 09:09:35;;;;;;;3.97;3.40;;;;;;;22.40;78.85;100167.13;5023104;28;20048;-77
2023/07/29 09:12:02;;;;;;;4.43;2.97;;;;;;;22.40;78.41;100165.28;5029690;28;20053;-79
2023/07/29 09:14:29;;;;;;;6.35;2.80;;;;;;;22.31;79.14;100165.94;5026590;28;20060;-78
2023/07/29 09:16:56;;;;;;;3.70;2.70;;;;;;;22.37;78.49;100159.63;5018639;28;20137;-77
2023/07/29 09:19:26;;;;;;;4.43;3.00;;;;;;;22.41;77.90;100156.22;5025351;28;20046;-78
2023/07/29 09:21:52;;;;;;;3.85;2.95;;;;;;;22.26;78.32;100158.66;5031025;28;20578;-78
2023/07/29 09:24:22;;;;;;;3.33;1.98;;;;;;;22.75;77.81;100159.63;5035028;28;20045;-78
2023/07/29 09:26:53;;;;;;;3.97;2.90;;;;;;;23.08;77.81;100153.41;5031668;28;20140;-78
2023/07/29 09:29:23;;;;;;;4.07;2.33;;;;;;;23.55;77.10;100160.03;5021499;28;20053;-78
2023/07/29 09:31:50;;;;;;;3.45;2.58;;;;;;;23.48;75.39;100150.34;5024228;28;20037;-79
2023/07/29 09:34:17;;;;;;;6.45;2.90;;;;;;;22.92;76.12;100156.94;5029478;28;20077;-78
2023/07/29 09:36:44;;;;;;;5.35;2.78;;;;;;;23.38;76.26;100155.56;5030532;28;20041;-78
2023/07/29 09:39:12;;;;;;;4.38;3.00;;;;;;;23.63;74.55;100148.91;5030612;28;20042;-78
2023/07/29 09:41:40;;;;;;;4.78;2.80;;;;;;;23.90;73.79;100147.00;5033596;28;20103;-78
2023/07/29 09:44:07;;;;;;;7.68;2.72;;;;;;;23.57;73.54;100144.56;5033326;28;20077;-78
2023/07/29 09:46:36;;;;;;;7.05;2.85;;;;;;;23.64;73.83;100140.63;5033728;28;20041;-81
2023/07/29 09:49:03;;;;;;;3.90;2.75;;;;;;;23.75;74.80;100149.53;5016575;28;20140;-78
2023/07/29 09:51:30;;;;;;;7.05;2.50;;;;;;;24.00;74.32;100144.41;5034057;28;20037;-78
2023/07/29 09:53:58;;;;;;;3.75;2.80;;;;;;;24.07;73.68;100153.00;5027177;28;20404;-78
2023/07/29 09:56:26;;;;;;;8.32;2.85;;;;;;;24.23;74.19;100155.78;5033425;28;20049;-78
2023/07/29 09:58:56;;;;;;;6.65;2.70;;;;;;;24.34;73.53;100154.81;5032804;28;20124;-78
2023/07/29 10:01:23;;;;;;;3.80;2.67;;;;;;;24.34;72.20;100139.56;5032788;28;20044;-76
2023/07/29 10:03:50;;;;;;;5.00;2.65;;;;;;;24.30;73.06;100151.03;5040946;28;20133;-78
2023/07/29 10:06:18;;;;;;;4.05;2.83;;;;;;;24.28;73.37;100153.16;5033758;28;20080;-77
2023/07/29 10:08:45;;;;;;;5.45;3.40;;;;;;;24.23;72.83;100147.75;5023234;28;20053;-78
2023/07/29 10:11:12;;;;;;;4.35;2.95;;;;;;;24.18;74.09;100156.53;5033369;28;20522;-77
2023/07/29 10:13:39;;;;;;;5.03;2.97;;;;;;;23.68;74.09;100163.09;5020615;28;20136;-79
2023/07/29 10:16:07;;;;;;;4.10;2.80;;;;;;;23.37;76.46;100175.31;5039122;28;20053;-79
2023/07/29 10:18:34;;;;;;;17.00;3.97;;;;;;;23.09;80.58;100180.88;5033012;28;20045;-78
2023/07/29 10:21:02;;;;;;;8.75;3.17;;;;;;;22.78;81.49;100167.16;5037107;28;20422;-80
2023/07/29 10:23:33;;;;;;;3.95;2.85;;;;;;;22.47;81.95;100170.44;5021403;28;20129;-79
2023/07/29 10:26:04;;;;;;;6.68;3.03;;;;;;;22.50;82.13;100156.63;5026768;28;20085;-78
2023/07/29 10:28:32;;;;;;;4.32;2.97;;;;;;;22.46;83.92;100166.16;5027496;28;20522;-79
2023/07/29 10:30:59;;;;;;;5.38;3.22;;;;;;;22.51;84.90;100175.03;5032020;28;20111;-77
2023/07/29 10:33:27;;;;;;;5.38;3.63;;;;;;;22.48;85.64;100177.38;5023314;28;20123;-78
2023/07/29 10:35:55;;;;;;;5.90;3.03;;;;;;;22.42;83.67;100173.03;5032880;28;20120;-79
2023/07/29 10:38:25;;;;;;;4.38;3.05;;;;;;;22.53;84.13;100169.47;5030033;28;20056;-80
2023/07/29 10:40:55;;;;;;;6.03;3.22;;;;;;;22.50;83.19;100167.28;5029072;28;20073;-80
2023/07/29 10:43:26;;;;;;;6.18;3.10;;;;;;;22.71;83.48;100150.50;5025642;28;20053;-79
2023/07/29 10:45:54;;;;;;;4.85;3.20;;;;;;;22.79;83.48;100157.28;5033142;28;20045;-78
2023/07/29 10:48:45;;;;;;;3.70;2.90;;;;;;;22.73;83.55;100167.06;5030044;28;20426;-79
2023/07/29 10:51:30;;;;;;;4.65;3.10;;;;;;;22.80;82.44;100151.72;5039893;28;20050;-78
2023/07/29 10:53:58;;;;;;;4.45;3.50;;;;;;;23.09;82.02;100151.53;5031549;28;20057;-78
2023/07/29 10:56:29;;;;;;;6.97;3.20;;;;;;;23.18;81.81;100160.69;5030115;28;20057;-78
2023/07/29 10:58:57;;;;;;;5.90;3.35;;;;;;;23.37;80.23;100137.94;5025464;28;20136;-78
2023/07/29 11:01:32;;;;;;;5.15;2.92;;;;;;;23.23;79.83;100142.06;5023101;28;20046;-77
2023/07/29 11:04:25;;;;;;;4.90;3.58;;;;;;;23.24;80.35;100148.19;5028352;28;20050;-77
2023/07/29 11:07:26;;;;;;;4.63;2.95;;;;;;;23.58;79.02;100136.31;5020593;28;20193;-77
2023/07/29 11:09:55;;;;;;;4.07;3.30;;;;;;;23.40;78.51;100134.78;5036924;28;20041;-78
2023/07/29 11:12:47;;;;;;;4.20;3.45;;;;;;;23.34;79.09;100143.78;5031365;28;20104;-79
2023/07/29 11:15:21;;;;;;;3.70;2.90;;;;;;;23.57;78.77;100136.56;5031331;28;20077;-78
2023/07/29 11:17:50;;;;;;;3.15;2.83;;;;;;;23.37;77.56;100121.91;5031769;28;20128;-76
2023/07/29 11:20:20;;;;;;;2.53;2.30;;;;;;;24.17;76.53;100131.66;5023725;28;20077;-77
2023/07/29 11:22:46;;;;;;;3.53;2.90;;;;;;;24.52;75.15;100122.28;5033614;28;20441;-78